sensor_id;sensor_type;location;lat;lon;timestamp;P1;durP1;ratioP1;P2;durP2;ratioP2
28926;SDS011;16038;47.692;9.400;2023-09-07T00:00:19;6.55;;;3.67;;
28926;SDS011;16038;47.692;9.400;2023-09-07T00:02:45;6.80;;;4.40;;
28926;SDS011;16038;47.692;9.400;2023-09-07T00:05:10;5.30;;;4.05;;
28926;SDS011;16038;47.692;9.400;2023-09-07T00:07:36;6.93;;;4.38;;
28926;SDS011;16038;47.692;9.400;2023-09-07T00:10:02;6.75;;;4.32;;
28926;SDS011;16038;47.692;9.400;2023-09-07T00:12:28;6.13;;;4.15;;
28926;SDS011;16038;47.692;9.400;2023-09-07T00:14:54;7.35;;;4.50;;
28926;SDS011;16038;47.692;9.400;2023-09-07T00:17:20;13.90;;;4.80;;
28926;SDS011;16038;47.692;9.400;2023-09-07T00:19:46;6.25;;;4.72;;
28926;SDS011;16038;47.692;9.400;2023-09-07T00:22:14;5.15;;;4.07;;
28926;SDS011;16038;47.692;9.400;2023-09-07T00:24:39;6.53;;;4.45;;
28926;SDS011;16038;47.692;9.400;2023-09-07T00:27:05;7.10;;;4.60;;
28926;SDS011;16038;47.692;9.400;2023-09-07T00:29:32;10.18;;;4.82;;
28926;SDS011;16038;47.692;9.400;2023-09-07T00:31:59;6.68;;;3.80;;
28926;SDS011;16038;47.692;9.400;2023-09-07T00:34:25;8.82;;;4.22;;
28926;SDS011;16038;47.692;9.400;2023-09-07T00:36:50;8.80;;;4.40;;
28926;SDS011;16038;47.692;9.400;2023-09-07T00:39:16;9.77;;;4.65;;
28926;SDS011;16038;47.692;9.400;2023-09-07T00:41:41;6.85;;;4.80;;
28926;SDS011;16038;47.692;9.400;2023-09-07T00:44:06;7.18;;;4.32;;
28926;SDS011;16038;47.692;9.400;2023-09-07T00:46:32;8.07;;;4.82;;
28926;SDS011;16038;47.692;9.400;2023-09-07T00:48:58;9.88;;;4.80;;
28926;SDS011;16038;47.692;9.400;2023-09-07T00:51:23;5.95;;;4.55;;
28926;SDS011;16038;47.692;9.400;2023-09-07T00:53:49;12.15;;;4.97;;
28926;SDS011;16038;47.692;9.400;2023-09-07T00:56:15;5.63;;;4.28;;
28926;SDS011;16038;47.692;9.400;2023-09-07T00:58:41;6.88;;;4.22;;
28926;SDS011;16038;47.692;9.400;2023-09-07T01:01:08;5.57;;;4.30;;
28926;SDS011;16038;47.692;9.400;2023-09-07T01:03:34;6.15;;;4.57;;
28926;SDS011;16038;47.692;9.400;2023-09-07T01:06:18;6.15;;;4.68;;
28926;SDS011;16038;47.692;9.400;2023-09-07T01:08:49;6.05;;;4.45;;
28926;SDS011;16038;47.692;9.400;2023-09-07T01:11:20;9.77;;;4.90;;
28926;SDS011;16038;47.692;9.400;2023-09-07T01:13:47;6.70;;;4.90;;
28926;SDS011;16038;47.692;9.400;2023-09-07T01:16:13;6.47;;;4.75;;
28926;SDS011;16038;47.692;9.400;2023-09-07T01:18:39;9.32;;;5.05;;
28926;SDS011;16038;47.692;9.400;2023-09-07T01:21:06;6.65;;;4.55;;
28926;SDS011;16038;47.692;9.400;2023-09-07T01:23:35;6.75;;;4.28;;
28926;SDS011;16038;47.692;9.400;2023-09-07T01:26:02;7.45;;;4.53;;
28926;SDS011;16038;47.692;9.400;2023-09-07T01:28:29;6.13;;;4.93;;
28926;SDS011;16038;47.692;9.400;2023-09-07T01:30:54;6.20;;;4.80;;
28926;SDS011;16038;47.692;9.400;2023-09-07T01:33:20;7.15;;;5.10;;
28926;SDS011;16038;47.692;9.400;2023-09-07T01:38:35;9.48;;;5.28;;
28926;SDS011;16038;47.692;9.400;2023-09-07T01:41:01;8.23;;;4.72;;
28926;SDS011;16038;47.692;9.400;2023-09-07T01:43:26;8.15;;;4.90;;
28926;SDS011;16038;47.692;9.400;2023-09-07T01:45:51;7.45;;;4.97;;
28926;SDS011;16038;47.692;9.400;2023-09-07T01:48:17;7.20;;;5.10;;
28926;SDS011;16038;47.692;9.400;2023-09-07T01:50:42;8.02;;;4.68;;
28926;SDS011;16038;47.692;9.400;2023-09-07T01:53:08;7.97;;;4.20;;
28926;SDS011;16038;47.692;9.400;2023-09-07T01:55:33;5.95;;;4.47;;
28926;SDS011;16038;47.692;9.400;2023-09-07T01:57:59;8.55;;;5.00;;
28926;SDS011;16038;47.692;9.400;2023-09-07T02:00:24;7.50;;;4.95;;
28926;SDS011;16038;47.692;9.400;2023-09-07T02:02:49;7.60;;;5.22;;
28926;SDS011;16038;47.692;9.400;2023-09-07T02:05:15;6.70;;;4.75;;
28926;SDS011;16038;47.692;9.400;2023-09-07T02:07:41;7.50;;;5.20;;
28926;SDS011;16038;47.692;9.400;2023-09-07T02:10:07;11.13;;;5.07;;
28926;SDS011;16038;47.692;9.400;2023-09-07T02:12:33;9.02;;;5.78;;
28926;SDS011;16038;47.692;9.400;2023-09-07T02:15:01;8.52;;;5.95;;
28926;SDS011;16038;47.692;9.400;2023-09-07T02:17:28;11.75;;;5.82;;
28926;SDS011;16038;47.692;9.400;2023-09-07T02:19:54;9.55;;;5.55;;
28926;SDS011;16038;47.692;9.400;2023-09-07T02:22:19;9.55;;;6.03;;
28926;SDS011;16038;47.692;9.400;2023-09-07T02:24:45;9.13;;;5.75;;
28926;SDS011;16038;47.692;9.400;2023-09-07T02:27:10;9.15;;;5.50;;
28926;SDS011;16038;47.692;9.400;2023-09-07T02:29:35;9.70;;;6.15;;
28926;SDS011;16038;47.692;9.400;2023-09-07T02:32:02;7.70;;;5.70;;
28926;SDS011;16038;47.692;9.400;2023-09-07T02:34:27;9.38;;;6.00;;
28926;SDS011;16038;47.692;9.400;2023-09-07T02:36:53;9.15;;;5.90;;
28926;SDS011;16038;47.692;9.400;2023-09-07T02:39:18;10.70;;;6.53;;
28926;SDS011;16038;47.692;9.400;2023-09-07T02:41:43;11.32;;;6.57;;
28926;SDS011;16038;47.692;9.400;2023-09-07T02:44:10;8.57;;;5.93;;
28926;SDS011;16038;47.692;9.400;2023-09-07T02:46:35;10.25;;;6.68;;
28926;SDS011;16038;47.692;9.400;2023-09-07T02:49:01;13.25;;;6.72;;
28926;SDS011;16038;47.692;9.400;2023-09-07T02:51:26;12.07;;;6.38;;
28926;SDS011;16038;47.692;9.400;2023-09-07T02:53:53;10.05;;;6.10;;
28926;SDS011;16038;47.692;9.400;2023-09-07T02:56:18;11.55;;;6.22;;
28926;SDS011;16038;47.692;9.400;2023-09-07T02:58:43;10.65;;;6.45;;
28926;SDS011;16038;47.692;9.400;2023-09-07T03:01:10;12.93;;;6.93;;
28926;SDS011;16038;47.692;9.400;2023-09-07T03:03:36;14.13;;;6.38;;
28926;SDS011;16038;47.692;9.400;2023-09-07T03:06:09;9.95;;;6.10;;
28926;SDS011;16038;47.692;9.400;2023-09-07T03:08:36;9.48;;;5.90;;
28926;SDS011;16038;47.692;9.400;2023-09-07T03:11:04;8.63;;;6.30;;
28926;SDS011;16038;47.692;9.400;2023-09-07T03:13:30;9.55;;;6.45;;
28926;SDS011;16038;47.692;9.400;2023-09-07T03:15:56;7.85;;;5.43;;
28926;SDS011;16038;47.692;9.400;2023-09-07T03:18:22;13.55;;;6.90;;
28926;SDS011;16038;47.692;9.400;2023-09-07T03:20:47;8.13;;;6.20;;
28926;SDS011;16038;47.692;9.400;2023-09-07T03:23:13;9.68;;;6.35;;
28926;SDS011;16038;47.692;9.400;2023-09-07T03:25:38;8.38;;;5.65;;
28926;SDS011;16038;47.692;9.400;2023-09-07T03:28:04;7.43;;;5.38;;
28926;SDS011;16038;47.692;9.400;2023-09-07T03:30:30;9.82;;;5.95;;
28926;SDS011;16038;47.692;9.400;2023-09-07T03:32:55;9.35;;;5.80;;
28926;SDS011;16038;47.692;9.400;2023-09-07T03:35:21;10.55;;;6.38;;
28926;SDS011;16038;47.692;9.400;2023-09-07T03:37:46;7.00;;;5.63;;
28926;SDS011;16038;47.692;9.400;2023-09-07T03:40:12;8.07;;;5.78;;
28926;SDS011;16038;47.692;9.400;2023-09-07T03:42:38;8.40;;;5.60;;
28926;SDS011;16038;47.692;9.400;2023-09-07T03:45:04;9.75;;;5.72;;
28926;SDS011;16038;47.692;9.400;2023-09-07T03:47:30;12.57;;;5.80;;
28926;SDS011;16038;47.692;9.400;2023-09-07T03:49:56;9.55;;;5.65;;
28926;SDS011;16038;47.692;9.400;2023-09-07T03:52:22;12.55;;;6.53;;
28926;SDS011;16038;47.692;9.400;2023-09-07T03:54:59;9.50;;;6.07;;
28926;SDS011;16038;47.692;9.400;2023-09-07T03:57:25;12.90;;;7.40;;
28926;SDS011;16038;47.692;9.400;2023-09-07T03:59:51;8.05;;;6.85;;
28926;SDS011;16038;47.692;9.400;2023-09-07T04:02:16;8.55;;;6.70;;
28926;SDS011;16038;47.692;9.400;2023-09-07T04:04:52;11.55;;;7.03;;
28926;SDS011;16038;47.692;9.400;2023-09-07T04:07:19;8.27;;;5.95;;
28926;SDS011;16038;47.692;9.400;2023-09-07T04:09:45;9.95;;;6.30;;
28926;SDS011;16038;47.692;9.400;2023-09-07T04:12:10;11.05;;;6.75;;
28926;SDS011;16038;47.692;9.400;2023-09-07T04:14:36;13.45;;;6.30;;
28926;SDS011;16038;47.692;9.400;2023-09-07T04:17:02;8.43;;;6.47;;
28926;SDS011;16038;47.692;9.400;2023-09-07T04:19:28;11.05;;;6.35;;
28926;SDS011;16038;47.692;9.400;2023-09-07T04:21:54;10.60;;;6.30;;
28926;SDS011;16038;47.692;9.400;2023-09-07T04:24:19;8.27;;;6.57;;
28926;SDS011;16038;47.692;9.400;2023-09-07T04:26:44;9.52;;;6.55;;
28926;SDS011;16038;47.692;9.400;2023-09-07T04:29:10;11.20;;;6.28;;
28926;SDS011;16038;47.692;9.400;2023-09-07T04:31:37;8.57;;;6.40;;
28926;SDS011;16038;47.692;9.400;2023-09-07T04:34:03;10.57;;;6.88;;
28926;SDS011;16038;47.692;9.400;2023-09-07T04:36:28;11.75;;;7.13;;
28926;SDS011;16038;47.692;9.400;2023-09-07T04:38:54;9.45;;;6.60;;
28926;SDS011;16038;47.692;9.400;2023-09-07T04:41:19;10.65;;;7.60;;
28926;SDS011;16038;47.692;9.400;2023-09-07T04:43:45;14.20;;;8.27;;
28926;SDS011;16038;47.692;9.400;2023-09-07T04:46:11;11.55;;;6.80;;
28926;SDS011;16038;47.692;9.400;2023-09-07T04:48:37;9.65;;;7.25;;
28926;SDS011;16038;47.692;9.400;2023-09-07T04:51:04;12.23;;;8.20;;
28926;SDS011;16038;47.692;9.400;2023-09-07T04:53:31;13.45;;;8.18;;
28926;SDS011;16038;47.692;9.400;2023-09-07T04:56:00;12.65;;;7.20;;
28926;SDS011;16038;47.692;9.400;2023-09-07T04:58:26;11.07;;;7.68;;
28926;SDS011;16038;47.692;9.400;2023-09-07T05:00:52;10.38;;;7.18;;
28926;SDS011;16038;47.692;9.400;2023-09-07T05:03:18;13.05;;;7.32;;
28926;SDS011;16038;47.692;9.400;2023-09-07T05:05:44;10.27;;;6.68;;
28926;SDS011;16038;47.692;9.400;2023-09-07T05:08:10;12.48;;;6.60;;
28926;SDS011;16038;47.692;9.400;2023-09-07T05:10:36;11.20;;;7.40;;
28926;SDS011;16038;47.692;9.400;2023-09-07T05:13:02;10.88;;;7.38;;
28926;SDS011;16038;47.692;9.400;2023-09-07T05:15:28;10.25;;;7.28;;
28926;SDS011;16038;47.692;9.400;2023-09-07T05:17:53;11.35;;;6.63;;
28926;SDS011;16038;47.692;9.400;2023-09-07T05:20:19;9.75;;;6.43;;
28926;SDS011;16038;47.692;9.400;2023-09-07T05:22:46;8.88;;;6.10;;
28926;SDS011;16038;47.692;9.400;2023-09-07T05:25:11;14.20;;;5.65;;
28926;SDS011;16038;47.692;9.400;2023-09-07T05:27:37;11.23;;;5.63;;
28926;SDS011;16038;47.692;9.400;2023-09-07T05:30:02;9.82;;;5.35;;
28926;SDS011;16038;47.692;9.400;2023-09-07T05:32:29;7.25;;;4.85;;
28926;SDS011;16038;47.692;9.400;2023-09-07T05:34:54;7.90;;;5.07;;
28926;SDS011;16038;47.692;9.400;2023-09-07T05:37:20;10.43;;;4.82;;
28926;SDS011;16038;47.692;9.400;2023-09-07T05:39:45;7.60;;;4.97;;
28926;SDS011;16038;47.692;9.400;2023-09-07T05:42:11;8.93;;;4.85;;
28926;SDS011;16038;47.692;9.400;2023-09-07T05:44:37;6.78;;;4.78;;
28926;SDS011;16038;47.692;9.400;2023-09-07T05:47:03;6.78;;;4.45;;
28926;SDS011;16038;47.692;9.400;2023-09-07T05:49:30;8.13;;;4.63;;
28926;SDS011;16038;47.692;9.400;2023-09-07T05:51:55;6.93;;;4.13;;
28926;SDS011;16038;47.692;9.400;2023-09-07T05:54:21;8.77;;;4.22;;
28926;SDS011;16038;47.692;9.400;2023-09-07T05:56:46;6.35;;;4.35;;
28926;SDS011;16038;47.692;9.400;2023-09-07T05:59:12;10.30;;;4.97;;
28926;SDS011;16038;47.692;9.400;2023-09-07T06:01:38;7.22;;;4.07;;
28926;SDS011;16038;47.692;9.400;2023-09-07T06:04:05;11.15;;;4.75;;
28926;SDS011;16038;47.692;9.400;2023-09-07T06:06:30;7.38;;;4.63;;
28926;SDS011;16038;47.692;9.400;2023-09-07T06:08:56;7.38;;;4.55;;
28926;SDS011;16038;47.692;9.400;2023-09-07T06:11:24;8.75;;;4.70;;
28926;SDS011;16038;47.692;9.400;2023-09-07T06:13:49;5.03;;;3.83;;
28926;SDS011;16038;47.692;9.400;2023-09-07T06:16:15;6.82;;;4.47;;
28926;SDS011;16038;47.692;9.400;2023-09-07T06:18:40;5.72;;;4.18;;
28926;SDS011;16038;47.692;9.400;2023-09-07T06:21:06;11.10;;;5.13;;
28926;SDS011;16038;47.692;9.400;2023-09-07T06:23:31;9.13;;;4.47;;
28926;SDS011;16038;47.692;9.400;2023-09-07T06:25:57;16.15;;;5.78;;
28926;SDS011;16038;47.692;9.400;2023-09-07T06:28:22;12.88;;;5.93;;
28926;SDS011;16038;47.692;9.400;2023-09-07T06:30:48;19.55;;;6.10;;
28926;SDS011;16038;47.692;9.400;2023-09-07T06:33:13;9.68;;;4.85;;
28926;SDS011;16038;47.692;9.400;2023-09-07T06:35:39;10.18;;;4.53;;
28926;SDS011;16038;47.692;9.400;2023-09-07T06:38:04;5.68;;;4.10;;
28926;SDS011;16038;47.692;9.400;2023-09-07T06:40:31;5.70;;;3.88;;
28926;SDS011;16038;47.692;9.400;2023-09-07T06:42:56;11.75;;;4.97;;
28926;SDS011;16038;47.692;9.400;2023-09-07T06:45:22;12.65;;;4.75;;
28926;SDS011;16038;47.692;9.400;2023-09-07T06:47:51;9.85;;;4.65;;
28926;SDS011;16038;47.692;9.400;2023-09-07T06:50:17;10.27;;;4.67;;
28926;SDS011;16038;47.692;9.400;2023-09-07T06:52:43;7.63;;;4.32;;
28926;SDS011;16038;47.692;9.400;2023-09-07T06:55:08;7.40;;;4.35;;
28926;SDS011;16038;47.692;9.400;2023-09-07T06:57:34;5.53;;;4.18;;
28926;SDS011;16038;47.692;9.400;2023-09-07T07:00:00;5.47;;;4.07;;
28926;SDS011;16038;47.692;9.400;2023-09-07T07:02:25;6.45;;;3.95;;
28926;SDS011;16038;47.692;9.400;2023-09-07T07:04:51;11.60;;;4.57;;
28926;SDS011;16038;47.692;9.400;2023-09-07T07:07:17;7.10;;;3.95;;
28926;SDS011;16038;47.692;9.400;2023-09-07T07:09:42;7.22;;;4.38;;
28926;SDS011;16038;47.692;9.400;2023-09-07T07:12:08;6.65;;;3.72;;
28926;SDS011;16038;47.692;9.400;2023-09-07T07:14:33;7.30;;;4.00;;
28926;SDS011;16038;47.692;9.400;2023-09-07T07:16:59;6.20;;;4.05;;
28926;SDS011;16038;47.692;9.400;2023-09-07T07:19:26;6.85;;;4.78;;
28926;SDS011;16038;47.692;9.400;2023-09-07T07:21:52;11.10;;;4.93;;
28926;SDS011;16038;47.692;9.400;2023-09-07T07:24:17;7.45;;;4.60;;
28926;SDS011;16038;47.692;9.400;2023-09-07T07:26:43;7.97;;;5.13;;
28926;SDS011;16038;47.692;9.400;2023-09-07T07:29:08;10.80;;;4.70;;
28926;SDS011;16038;47.692;9.400;2023-09-07T07:31:34;6.10;;;5.07;;
28926;SDS011;16038;47.692;9.400;2023-09-07T07:34:01;9.20;;;4.65;;
28926;SDS011;16038;47.692;9.400;2023-09-07T07:36:26;12.13;;;6.68;;
28926;SDS011;16038;47.692;9.400;2023-09-07T07:38:51;9.05;;;5.47;;
28926;SDS011;16038;47.692;9.400;2023-09-07T07:41:17;6.35;;;4.43;;
28926;SDS011;16038;47.692;9.400;2023-09-07T07:43:42;8.30;;;4.88;;
28926;SDS011;16038;47.692;9.400;2023-09-07T07:46:08;8.43;;;4.70;;
28926;SDS011;16038;47.692;9.400;2023-09-07T07:48:33;8.63;;;4.85;;
28926;SDS011;16038;47.692;9.400;2023-09-07T07:51:02;7.72;;;4.60;;
28926;SDS011;16038;47.692;9.400;2023-09-07T07:53:29;7.30;;;5.00;;
28926;SDS011;16038;47.692;9.400;2023-09-07T07:55:56;8.88;;;4.05;;
28926;SDS011;16038;47.692;9.400;2023-09-07T07:58:22;6.80;;;4.25;;
28926;SDS011;16038;47.692;9.400;2023-09-07T08:00:47;6.32;;;4.65;;
28926;SDS011;16038;47.692;9.400;2023-09-07T08:03:14;9.23;;;4.82;;
28926;SDS011;16038;47.692;9.400;2023-09-07T08:05:42;7.18;;;4.15;;
28926;SDS011;16038;47.692;9.400;2023-09-07T08:08:07;8.82;;;4.35;;
28926;SDS011;16038;47.692;9.400;2023-09-07T08:10:36;5.95;;;4.05;;
28926;SDS011;16038;47.692;9.400;2023-09-07T08:13:02;5.95;;;3.92;;
28926;SDS011;16038;47.692;9.400;2023-09-07T08:15:29;5.70;;;4.25;;
28926;SDS011;16038;47.692;9.400;2023-09-07T08:17:56;7.68;;;4.68;;
28926;SDS011;16038;47.692;9.400;2023-09-07T08:20:22;8.65;;;5.05;;
28926;SDS011;16038;47.692;9.400;2023-09-07T08:22:48;11.65;;;4.82;;
28926;SDS011;16038;47.692;9.400;2023-09-07T08:25:13;9.77;;;4.90;;
28926;SDS011;16038;47.692;9.400;2023-09-07T08:27:41;7.70;;;5.25;;
28926;SDS011;16038;47.692;9.400;2023-09-07T08:30:12;8.48;;;5.15;;
28926;SDS011;16038;47.692;9.400;2023-09-07T08:32:40;6.18;;;4.53;;
28926;SDS011;16038;47.692;9.400;2023-09-07T08:35:06;8.10;;;4.90;;
28926;SDS011;16038;47.692;9.400;2023-09-07T08:37:34;7.20;;;4.75;;
28926;SDS011;16038;47.692;9.400;2023-09-07T08:39:59;10.55;;;4.78;;
28926;SDS011;16038;47.692;9.400;2023-09-07T08:42:25;7.55;;;5.03;;
28926;SDS011;16038;47.692;9.400;2023-09-07T08:44:51;8.80;;;5.07;;
28926;SDS011;16038;47.692;9.400;2023-09-07T08:49:46;7.32;;;4.53;;
28926;SDS011;16038;47.692;9.400;2023-09-07T08:52:12;9.40;;;5.57;;
28926;SDS011;16038;47.692;9.400;2023-09-07T08:54:41;9.55;;;5.38;;
28926;SDS011;16038;47.692;9.400;2023-09-07T08:57:07;9.55;;;5.88;;
28926;SDS011;16038;47.692;9.400;2023-09-07T08:59:35;8.07;;;5.28;;
28926;SDS011;16038;47.692;9.400;2023-09-07T09:02:01;8.40;;;5.85;;
28926;SDS011;16038;47.692;9.400;2023-09-07T09:04:29;7.23;;;5.90;;
28926;SDS011;16038;47.692;9.400;2023-09-07T09:06:55;8.00;;;5.25;;
28926;SDS011;16038;47.692;9.400;2023-09-07T09:09:24;7.45;;;5.47;;
28926;SDS011;16038;47.692;9.400;2023-09-07T09:11:50;11.65;;;5.43;;
28926;SDS011;16038;47.692;9.400;2023-09-07T09:14:16;6.90;;;4.72;;
28926;SDS011;16038;47.692;9.400;2023-09-07T09:16:52;6.50;;;5.65;;
28926;SDS011;16038;47.692;9.400;2023-09-07T09:19:18;6.57;;;4.93;;
28926;SDS011;16038;47.692;9.400;2023-09-07T09:21:46;9.35;;;4.82;;
28926;SDS011;16038;47.692;9.400;2023-09-07T09:24:12;8.75;;;6.00;;
28926;SDS011;16038;47.692;9.400;2023-09-07T09:26:37;7.07;;;4.93;;
28926;SDS011;16038;47.692;9.400;2023-09-07T09:29:03;6.97;;;5.63;;
28926;SDS011;16038;47.692;9.400;2023-09-07T09:31:29;11.30;;;5.60;;
28926;SDS011;16038;47.692;9.400;2023-09-07T09:33:55;9.75;;;5.53;;
28926;SDS011;16038;47.692;9.400;2023-09-07T09:36:21;10.50;;;5.88;;
28926;SDS011;16038;47.692;9.400;2023-09-07T09:38:51;12.85;;;6.72;;
28926;SDS011;16038;47.692;9.400;2023-09-07T09:41:19;8.00;;;4.97;;
28926;SDS011;16038;47.692;9.400;2023-09-07T09:43:46;7.88;;;4.90;;
28926;SDS011;16038;47.692;9.400;2023-09-07T09:46:16;5.13;;;4.40;;
28926;SDS011;16038;47.692;9.400;2023-09-07T09:48:43;8.40;;;4.78;;
28926;SDS011;16038;47.692;9.400;2023-09-07T09:51:09;7.80;;;4.80;;
28926;SDS011;16038;47.692;9.400;2023-09-07T09:53:36;9.13;;;5.15;;
28926;SDS011;16038;47.692;9.400;2023-09-07T09:56:01;7.85;;;4.85;;
28926;SDS011;16038;47.692;9.400;2023-09-07T09:58:28;8.20;;;5.53;;
28926;SDS011;16038;47.692;9.400;2023-09-07T10:00:54;8.60;;;5.63;;
28926;SDS011;16038;47.692;9.400;2023-09-07T10:05:49;9.88;;;5.55;;
28926;SDS011;16038;47.692;9.400;2023-09-07T10:08:15;9.25;;;4.80;;
28926;SDS011;16038;47.692;9.400;2023-09-07T10:10:43;11.75;;;5.47;;
28926;SDS011;16038;47.692;9.400;2023-09-07T10:13:13;8.35;;;5.28;;
28926;SDS011;16038;47.692;9.400;2023-09-07T10:15:39;8.47;;;4.83;;
28926;SDS011;16038;47.692;9.400;2023-09-07T10:18:14;6.65;;;4.60;;
28926;SDS011;16038;47.692;9.400;2023-09-07T10:23:21;9.13;;;4.40;;
28926;SDS011;16038;47.692;9.400;2023-09-07T10:25:49;8.88;;;4.97;;
28926;SDS011;16038;47.692;9.400;2023-09-07T10:28:22;6.45;;;4.68;;
28926;SDS011;16038;47.692;9.400;2023-09-07T10:30:59;6.90;;;4.20;;
28926;SDS011;16038;47.692;9.400;2023-09-07T10:33:27;7.75;;;4.60;;
28926;SDS011;16038;47.692;9.400;2023-09-07T10:35:52;8.30;;;5.28;;
28926;SDS011;16038;47.692;9.400;2023-09-07T10:38:18;7.00;;;4.47;;
28926;SDS011;16038;47.692;9.400;2023-09-07T10:40:44;10.23;;;4.90;;
28926;SDS011;16038;47.692;9.400;2023-09-07T10:43:10;9.20;;;4.50;;
28926;SDS011;16038;47.692;9.400;2023-09-07T10:45:36;8.57;;;4.97;;
28926;SDS011;16038;47.692;9.400;2023-09-07T10:48:02;9.02;;;5.00;;
28926;SDS011;16038;47.692;9.400;2023-09-07T10:50:29;9.65;;;5.30;;
28926;SDS011;16038;47.692;9.400;2023-09-07T10:52:54;8.88;;;4.95;;
28926;SDS011;16038;47.692;9.400;2023-09-07T10:55:20;8.32;;;5.10;;
28926;SDS011;16038;47.692;9.400;2023-09-07T10:57:46;8.50;;;5.45;;
28926;SDS011;16038;47.692;9.400;2023-09-07T11:00:13;9.18;;;4.63;;
28926;SDS011;16038;47.692;9.400;2023-09-07T11:02:39;11.13;;;4.43;;
28926;SDS011;16038;47.692;9.400;2023-09-07T11:05:06;7.07;;;4.90;;
28926;SDS011;16038;47.692;9.400;2023-09-07T11:07:32;10.60;;;4.82;;
28926;SDS011;16038;47.692;9.400;2023-09-07T11:09:58;7.45;;;5.13;;
28926;SDS011;16038;47.692;9.400;2023-09-07T11:12:23;8.63;;;5.35;;
28926;SDS011;16038;47.692;9.400;2023-09-07T11:14:53;9.60;;;5.53;;
28926;SDS011;16038;47.692;9.400;2023-09-07T11:19:44;11.23;;;5.35;;
28926;SDS011;16038;47.692;9.400;2023-09-07T11:22:10;8.50;;;5.00;;
28926;SDS011;16038;47.692;9.400;2023-09-07T11:24:35;8.85;;;5.00;;
28926;SDS011;16038;47.692;9.400;2023-09-07T11:27:01;8.30;;;5.05;;
28926;SDS011;16038;47.692;9.400;2023-09-07T11:29:28;8.32;;;4.85;;
28926;SDS011;16038;47.692;9.400;2023-09-07T11:32:05;14.37;;;6.27;;
28926;SDS011;16038;47.692;9.400;2023-09-07T11:34:34;6.45;;;4.63;;
28926;SDS011;16038;47.692;9.400;2023-09-07T11:37:01;9.55;;;5.35;;
28926;SDS011;16038;47.692;9.400;2023-09-07T11:39:28;9.68;;;4.32;;
28926;SDS011;16038;47.692;9.400;2023-09-07T11:41:54;7.35;;;4.70;;
28926;SDS011;16038;47.692;9.400;2023-09-07T11:44:20;9.35;;;4.47;;
28926;SDS011;16038;47.692;9.400;2023-09-07T11:46:46;6.82;;;4.25;;
28926;SDS011;16038;47.692;9.400;2023-09-07T11:49:11;7.75;;;4.68;;
28926;SDS011;16038;47.692;9.400;2023-09-07T11:51:37;8.18;;;4.85;;
28926;SDS011;16038;47.692;9.400;2023-09-07T11:54:02;8.38;;;4.72;;
28926;SDS011;16038;47.692;9.400;2023-09-07T11:56:29;10.27;;;4.90;;
28926;SDS011;16038;47.692;9.400;2023-09-07T11:58:55;7.18;;;4.88;;
28926;SDS011;16038;47.692;9.400;2023-09-07T12:01:21;10.40;;;4.68;;
28926;SDS011;16038;47.692;9.400;2023-09-07T12:03:46;7.75;;;4.70;;
28926;SDS011;16038;47.692;9.400;2023-09-07T12:06:12;7.00;;;4.35;;
28926;SDS011;16038;47.692;9.400;2023-09-07T12:08:41;7.18;;;4.63;;
28926;SDS011;16038;47.692;9.400;2023-09-07T12:11:08;11.13;;;5.57;;
28926;SDS011;16038;47.692;9.400;2023-09-07T12:13:33;11.25;;;6.00;;
28926;SDS011;16038;47.692;9.400;2023-09-07T12:15:59;7.85;;;4.75;;
28926;SDS011;16038;47.692;9.400;2023-09-07T12:18:27;8.50;;;5.03;;
28926;SDS011;16038;47.692;9.400;2023-09-07T12:20:52;7.93;;;4.30;;
28926;SDS011;16038;47.692;9.400;2023-09-07T12:23:18;8.75;;;5.30;;
28926;SDS011;16038;47.692;9.400;2023-09-07T12:25:43;14.00;;;6.15;;
28926;SDS011;16038;47.692;9.400;2023-09-07T12:28:09;8.70;;;5.50;;
28926;SDS011;16038;47.692;9.400;2023-09-07T12:30:34;6.88;;;4.75;;
28926;SDS011;16038;47.692;9.400;2023-09-07T12:33:00;8.55;;;5.13;;
28926;SDS011;16038;47.692;9.400;2023-09-07T12:35:25;10.65;;;4.70;;
28926;SDS011;16038;47.692;9.400;2023-09-07T12:37:50;17.08;;;7.05;;
28926;SDS011;16038;47.692;9.400;2023-09-07T12:40:16;15.75;;;5.70;;
28926;SDS011;16038;47.692;9.400;2023-09-07T12:42:41;9.63;;;5.68;;
28926;SDS011;16038;47.692;9.400;2023-09-07T12:45:09;11.20;;;4.88;;
28926;SDS011;16038;47.692;9.400;2023-09-07T12:47:35;8.38;;;5.10;;
28926;SDS011;16038;47.692;9.400;2023-09-07T12:50:01;8.63;;;5.40;;
28926;SDS011;16038;47.692;9.400;2023-09-07T12:52:28;9.15;;;5.10;;
28926;SDS011;16038;47.692;9.400;2023-09-07T12:54:54;6.70;;;4.88;;
28926;SDS011;16038;47.692;9.400;2023-09-07T12:57:19;9.00;;;5.18;;
28926;SDS011;16038;47.692;9.400;2023-09-07T12:59:45;10.35;;;5.80;;
28926;SDS011;16038;47.692;9.400;2023-09-07T13:02:10;11.50;;;5.53;;
28926;SDS011;16038;47.692;9.400;2023-09-07T13:04:36;7.93;;;5.03;;
28926;SDS011;16038;47.692;9.400;2023-09-07T13:07:01;8.20;;;4.72;;
28926;SDS011;16038;47.692;9.400;2023-09-07T13:09:27;8.48;;;5.43;;
28926;SDS011;16038;47.692;9.400;2023-09-07T13:11:53;9.77;;;4.88;;
28926;SDS011;16038;47.692;9.400;2023-09-07T13:14:18;7.07;;;5.00;;
28926;SDS011;16038;47.692;9.400;2023-09-07T13:16:43;7.30;;;4.95;;
28926;SDS011;16038;47.692;9.400;2023-09-07T13:19:09;13.45;;;6.32;;
28926;SDS011;16038;47.692;9.400;2023-09-07T13:21:35;10.10;;;4.85;;
28926;SDS011;16038;47.692;9.400;2023-09-07T13:24:00;8.10;;;5.15;;
28926;SDS011;16038;47.692;9.400;2023-09-07T13:26:26;7.18;;;4.82;;
28926;SDS011;16038;47.692;9.400;2023-09-07T13:28:51;9.45;;;5.85;;
28926;SDS011;16038;47.692;9.400;2023-09-07T13:31:16;13.02;;;5.97;;
28926;SDS011;16038;47.692;9.400;2023-09-07T13:33:42;7.82;;;5.15;;
28926;SDS011;16038;47.692;9.400;2023-09-07T13:36:07;8.45;;;5.55;;
28926;SDS011;16038;47.692;9.400;2023-09-07T13:38:34;7.07;;;5.43;;
28926;SDS011;16038;47.692;9.400;2023-09-07T13:41:00;9.60;;;5.68;;
28926;SDS011;16038;47.692;9.400;2023-09-07T13:43:25;6.80;;;5.30;;
28926;SDS011;16038;47.692;9.400;2023-09-07T13:45:51;9.50;;;5.00;;
28926;SDS011;16038;47.692;9.400;2023-09-07T13:48:16;8.10;;;5.07;;
28926;SDS011;16038;47.692;9.400;2023-09-07T13:50:42;10.27;;;5.28;;
28926;SDS011;16038;47.692;9.400;2023-09-07T13:53:08;9.73;;;5.15;;
28926;SDS011;16038;47.692;9.400;2023-09-07T13:55:33;7.35;;;4.97;;
28926;SDS011;16038;47.692;9.400;2023-09-07T13:58:00;11.55;;;5.32;;
28926;SDS011;16038;47.692;9.400;2023-09-07T14:00:25;11.18;;;5.30;;
28926;SDS011;16038;47.692;9.400;2023-09-07T14:02:51;8.73;;;5.10;;
28926;SDS011;16038;47.692;9.400;2023-09-07T14:05:17;7.25;;;5.13;;
28926;SDS011;16038;47.692;9.400;2023-09-07T14:07:43;6.35;;;4.93;;
28926;SDS011;16038;47.692;9.400;2023-09-07T14:10:09;7.28;;;4.75;;
28926;SDS011;16038;47.692;9.400;2023-09-07T14:12:34;6.85;;;5.03;;
28926;SDS011;16038;47.692;9.400;2023-09-07T14:15:00;19.75;;;7.18;;
28926;SDS011;16038;47.692;9.400;2023-09-07T14:17:25;11.68;;;5.20;;
28926;SDS011;16038;47.692;9.400;2023-09-07T14:19:50;8.93;;;5.07;;
28926;SDS011;16038;47.692;9.400;2023-09-07T14:22:16;9.02;;;5.22;;
28926;SDS011;16038;47.692;9.400;2023-09-07T14:24:41;8.25;;;4.75;;
28926;SDS011;16038;47.692;9.400;2023-09-07T14:27:07;7.80;;;5.03;;
28926;SDS011;16038;47.692;9.400;2023-09-07T14:29:34;10.32;;;5.50;;
28926;SDS011;16038;47.692;9.400;2023-09-07T14:32:00;5.88;;;4.05;;
28926;SDS011;16038;47.692;9.400;2023-09-07T14:34:26;10.77;;;5.03;;
28926;SDS011;16038;47.692;9.400;2023-09-07T14:36:54;7.53;;;5.03;;
28926;SDS011;16038;47.692;9.400;2023-09-07T14:39:22;6.97;;;4.57;;
28926;SDS011;16038;47.692;9.400;2023-09-07T14:41:49;11.30;;;5.70;;
28926;SDS011;16038;47.692;9.400;2023-09-07T14:44:15;6.25;;;4.68;;
28926;SDS011;16038;47.692;9.400;2023-09-07T14:46:41;7.05;;;4.80;;
28926;SDS011;16038;47.692;9.400;2023-09-07T14:49:06;9.13;;;4.93;;